Time;durP1;ratioP1;P1;durP2;ratioP2;P2;SDS_P1;SDS_P2;PMS_P1;PMS_P2;Temp;Humidity;BMP_temperature;BMP_pressure;BME280_temperature;BME280_humidity;BME280_pressure;Samples;Min_cycle;Max_cycle;Signal;HPM_P1;HPM_P2
2023/10/27 00:01:57;;;;;;;2.40;0.70;;;;;;;;;;6261242;22;20080;-67
2023/10/27 00:04:24;;;;;;;1.63;0.52;;;;;;;;;;6262885;22;20039;-64
2023/10/27 00:06:52;;;;;;;2.45;0.70;;;;;;;;;;6260089;22;20022;-67
2023/10/27 00:09:17;;;;;;;1.77;0.57;;;;;;;;;;6289715;22;20007;-67
2023/10/27 00:11:42;;;;;;;2.03;0.70;;;;;;;;;;6262401;22;20003;-64
2023/10/27 00:14:08;;;;;;;1.33;0.57;;;;;;;;;;6289132;22;20221;-67
2023/10/27 00:16:38;;;;;;;3.65;0.70;;;;;;;;;;6288737;22;20241;-67
2023/10/27 00:19:04;;;;;;;2.00;0.60;;;;;;;;;;6290043;22;19995;-66
2023/10/27 00:21:29;;;;;;;1.80;0.70;;;;;;;;;;6289626;22;20069;-65
2023/10/27 00:23:54;;;;;;;1.70;0.55;;;;;;;;;;6261035;22;20236;-66
2023/10/27 00:26:19;;;;;;;2.55;0.70;;;;;;;;;;6290124;22;20003;-65
2023/10/27 00:28:47;;;;;;;1.25;0.40;;;;;;;;;;6261088;22;20265;-64
2023/10/27 00:31:13;;;;;;;1.60;0.50;;;;;;;;;;6261763;22;20007;-63
2023/10/27 00:33:38;;;;;;;1.50;0.50;;;;;;;;;;6261164;22;19999;-63
2023/10/27 00:36:04;;;;;;;3.17;0.80;;;;;;;;;;6259422;22;20011;-63
2023/10/27 00:38:31;;;;;;;2.35;0.50;;;;;;;;;;6289074;22;20011;-64
2023/10/27 00:40:59;;;;;;;1.27;0.40;;;;;;;;;;6287354;22;20044;-64
2023/10/27 00:43:29;;;;;;;1.58;0.50;;;;;;;;;;6259702;22;20098;-64
2023/10/27 00:45:54;;;;;;;1.83;0.50;;;;;;;;;;6287515;22;20392;-65
2023/10/27 00:48:22;;;;;;;1.83;0.57;;;;;;;;;;6287431;22;19999;-64
2023/10/27 00:50:48;;;;;;;0.75;0.30;;;;;;;;;;6257583;22;20026;-65
2023/10/27 00:53:14;;;;;;;1.58;0.40;;;;;;;;;;6283950;22;20080;-65
2023/10/27 00:55:42;;;;;;;1.55;0.40;;;;;;;;;;6258803;22;20007;-64
2023/10/27 00:58:10;;;;;;;2.15;0.45;;;;;;;;;;6259883;22;20757;-63
2023/10/27 01:00:36;;;;;;;3.33;0.40;;;;;;;;;;6287220;22;20027;-65
2023/10/27 01:03:02;;;;;;;1.10;0.40;;;;;;;;;;6260082;22;20390;-65
2023/10/27 01:05:27;;;;;;;2.72;0.60;;;;;;;;;;6262677;22;20363;-63
2023/10/27 01:07:55;;;;;;;2.33;0.50;;;;;;;;;;6259599;22;20018;-64
2023/10/27 01:10:20;;;;;;;2.97;0.50;;;;;;;;;;6257551;22;20010;-65
2023/10/27 01:12:48;;;;;;;1.85;0.30;;;;;;;;;;6260094;22;20606;-63
2023/10/27 01:15:16;;;;;;;1.70;0.50;;;;;;;;;;6259352;22;20006;-67
2023/10/27 01:17:41;;;;;;;1.50;0.30;;;;;;;;;;6260676;22;20007;-66
2023/10/27 01:20:09;;;;;;;1.02;0.30;;;;;;;;;;6288158;22;20002;-68
2023/10/27 01:22:44;;;;;;;1.42;0.40;;;;;;;;;;6287727;22;20074;-67
2023/10/27 01:25:12;;;;;;;0.47;0.20;;;;;;;;;;6288431;22;20057;-66
2023/10/27 01:27:37;;;;;;;1.25;0.30;;;;;;;;;;6261652;22;20549;-67
2023/10/27 01:30:03;;;;;;;1.27;0.40;;;;;;;;;;6261772;22;20094;-68
2023/10/27 01:32:28;;;;;;;1.27;0.32;;;;;;;;;;6262700;22;20026;-67
2023/10/27 01:34:53;;;;;;;0.90;0.30;;;;;;;;;;6287127;22;20478;-67
2023/10/27 01:37:19;;;;;;;0.93;0.43;;;;;;;;;;6260421;22;20014;-68
2023/10/27 01:39:46;;;;;;;1.10;0.32;;;;;;;;;;6261041;22;20060;-67
2023/10/27 01:42:11;;;;;;;2.25;0.40;;;;;;;;;;6261886;22;20023;-67
2023/10/27 01:44:39;;;;;;;0.93;0.30;;;;;;;;;;6260328;22;20003;-68
2023/10/27 01:47:06;;;;;;;0.52;0.20;;;;;;;;;;6290010;22;20246;-67
2023/10/27 01:49:34;;;;;;;1.08;0.32;;;;;;;;;;6258918;22;20002;-68
2023/10/27 01:51:59;;;;;;;1.48;0.30;;;;;;;;;;6259958;22;20109;-68
2023/10/27 01:54:25;;;;;;;0.60;0.23;;;;;;;;;;6256948;22;20074;-68
2023/10/27 01:56:50;;;;;;;0.57;0.10;;;;;;;;;;6286973;22;20217;-68
2023/10/27 01:59:15;;;;;;;1.70;0.20;;;;;;;;;;6257659;22;20735;-68
2023/10/27 02:01:40;;;;;;;1.88;0.30;;;;;;;;;;6286505;22;20073;-68
2023/10/27 02:04:08;;;;;;;3.70;0.30;;;;;;;;;;6257705;22;20003;-69
2023/10/27 02:06:33;;;;;;;0.80;0.20;;;;;;;;;;6289093;22;20242;-68
2023/10/27 02:09:01;;;;;;;1.03;0.27;;;;;;;;;;6260884;22;20004;-68
2023/10/27 02:11:26;;;;;;;0.30;0.10;;;;;;;;;;6263441;22;20278;-69
2023/10/27 02:13:52;;;;;;;0.75;0.38;;;;;;;;;;6264313;22;20003;-71
2023/10/27 02:16:17;;;;;;;0.93;0.20;;;;;;;;;;6261464;22;20027;-70
2023/10/27 02:18:45;;;;;;;0.82;0.30;;;;;;;;;;6263510;22;19999;-68
2023/10/27 02:21:11;;;;;;;1.23;0.30;;;;;;;;;;6290639;22;20082;-67
2023/10/27 02:23:36;;;;;;;0.60;0.13;;;;;;;;;;6262511;22;20003;-70
2023/10/27 02:26:03;;;;;;;0.70;0.20;;;;;;;;;;6290696;22;20273;-66
2023/10/27 02:28:28;;;;;;;0.50;0.10;;;;;;;;;;6291344;22;20245;-66
2023/10/27 02:30:54;;;;;;;0.35;0.20;;;;;;;;;;6263510;22;20049;-68
2023/10/27 02:33:19;;;;;;;0.75;0.20;;;;;;;;;;6288077;22;20390;-68
2023/10/27 02:35:47;;;;;;;0.52;0.20;;;;;;;;;;6265244;22;20003;-67
2023/10/27 02:38:12;;;;;;;3.35;0.70;;;;;;;;;;6260777;22;20010;-67
2023/10/27 02:40:38;;;;;;;1.10;0.30;;;;;;;;;;6292514;22;19995;-68
2023/10/27 02:43:03;;;;;;;0.77;0.30;;;;;;;;;;6290168;22;20052;-69
2023/10/27 02:45:29;;;;;;;1.02;0.40;;;;;;;;;;6288294;22;20015;-69
2023/10/27 02:47:54;;;;;;;0.95;0.30;;;;;;;;;;6262865;22;20432;-68
2023/10/27 02:50:20;;;;;;;1.63;0.30;;;;;;;;;;6289256;22;19995;-66
2023/10/27 02:52:45;;;;;;;1.80;0.30;;;;;;;;;;6261543;22;20088;-68
2023/10/27 02:55:10;;;;;;;0.65;0.30;;;;;;;;;;6259184;22;20229;-69
2023/10/27 02:57:36;;;;;;;1.38;0.38;;;;;;;;;;6262083;22;20645;-68
2023/10/27 03:00:02;;;;;;;0.40;0.20;;;;;;;;;;6260524;22;20057;-68
2023/10/27 03:02:27;;;;;;;1.10;0.40;;;;;;;;;;6289513;22;19999;-67
2023/10/27 03:04:54;;;;;;;1.40;0.30;;;;;;;;;;6288922;22;20006;-68
2023/10/27 03:07:20;;;;;;;0.40;0.20;;;;;;;;;;6289622;22;20312;-68
2023/10/27 03:09:47;;;;;;;1.27;0.40;;;;;;;;;;6261121;22;20500;-67
2023/10/27 03:12:13;;;;;;;2.95;0.40;;;;;;;;;;6288837;22;20222;-68
2023/10/27 03:14:38;;;;;;;1.98;0.50;;;;;;;;;;6261731;22;19999;-68
2023/10/27 03:17:06;;;;;;;2.00;0.50;;;;;;;;;;6287226;22;19999;-68
2023/10/27 03:19:31;;;;;;;1.25;0.40;;;;;;;;;;6263572;22;20474;-68
2023/10/27 03:21:56;;;;;;;1.33;0.40;;;;;;;;;;6289686;22;19997;-67
2023/10/27 03:24:24;;;;;;;0.90;0.38;;;;;;;;;;6262868;22;20019;-66
2023/10/27 03:26:50;;;;;;;3.40;0.50;;;;;;;;;;6289255;22;20337;-67
2023/10/27 03:29:15;;;;;;;1.20;0.43;;;;;;;;;;6289176;22;20428;-66
2023/10/27 03:31:40;;;;;;;2.03;0.50;;;;;;;;;;6288346;22;20737;-66
2023/10/27 03:34:05;;;;;;;1.00;0.38;;;;;;;;;;6260895;22;20261;-67
2023/10/27 03:36:31;;;;;;;2.20;0.50;;;;;;;;;;6288725;22;20328;-66
2023/10/27 03:38:56;;;;;;;1.88;0.55;;;;;;;;;;6260527;22;20221;-66
2023/10/27 03:41:21;;;;;;;1.20;0.40;;;;;;;;;;6259946;22;20003;-66
2023/10/27 03:43:47;;;;;;;2.45;0.60;;;;;;;;;;6287720;22;20205;-66
2023/10/27 03:46:14;;;;;;;0.95;0.30;;;;;;;;;;6252875;22;20492;-66
2023/10/27 03:48:40;;;;;;;1.27;0.47;;;;;;;;;;6258093;22;20019;-66
2023/10/27 03:51:05;;;;;;;4.65;0.40;;;;;;;;;;6253659;22;20034;-67
2023/10/27 03:53:33;;;;;;;2.50;0.40;;;;;;;;;;6259235;22;20000;-66
2023/10/27 03:55:58;;;;;;;2.20;0.50;;;;;;;;;;6254196;22;19995;-66
2023/10/27 03:58:23;;;;;;;1.33;0.50;;;;;;;;;;6256619;22;20393;-66
2023/10/27 04:00:49;;;;;;;1.10;0.40;;;;;;;;;;6254347;22;20257;-67
2023/10/27 04:03:14;;;;;;;0.98;0.30;;;;;;;;;;6253723;22;20226;-66
2023/10/27 04:05:42;;;;;;;0.80;0.30;;;;;;;;;;6255235;22;20025;-66
2023/10/27 04:08:07;;;;;;;1.23;0.57;;;;;;;;;;6256107;22;20015;-67
2023/10/27 04:10:36;;;;;;;2.42;0.60;;;;;;;;;;6254742;22;20055;-65
2023/10/27 04:13:01;;;;;;;1.20;0.40;;;;;;;;;;6254190;22;20007;-66
2023/10/27 04:15:27;;;;;;;1.60;0.40;;;;;;;;;;6254643;22;20031;-67
2023/10/27 04:17:55;;;;;;;2.10;0.50;;;;;;;;;;6252545;22;20616;-66
2023/10/27 04:20:20;;;;;;;1.17;0.52;;;;;;;;;;6254988;22;20012;-66
2023/10/27 04:22:45;;;;;;;2.03;0.60;;;;;;;;;;6254650;22;19999;-66
2023/10/27 04:25:10;;;;;;;2.22;0.70;;;;;;;;;;6256402;22;20483;-66
2023/10/27 04:27:39;;;;;;;1.27;0.50;;;;;;;;;;6255924;22;20083;-67
2023/10/27 04:30:07;;;;;;;1.33;0.52;;;;;;;;;;6251671;22;20006;-67
2023/10/27 04:32:38;;;;;;;0.88;0.40;;;;;;;;;;6256409;22;19999;-66
2023/10/27 04:35:03;;;;;;;1.67;0.55;;;;;;;;;;6252980;22;19999;-67
2023/10/27 04:37:32;;;;;;;1.55;0.50;;;;;;;;;;6254921;22;20111;-67
2023/10/27 04:39:58;;;;;;;1.75;0.50;;;;;;;;;;6254583;22;20030;-66
2023/10/27 04:42:23;;;;;;;1.75;0.50;;;;;;;;;;6255924;22;20439;-66
2023/10/27 04:44:48;;;;;;;1.00;0.40;;;;;;;;;;6256005;22;20023;-66
2023/10/27 04:47:14;;;;;;;0.70;0.40;;;;;;;;;;6256063;22;20034;-66
2023/10/27 04:49:39;;;;;;;1.30;0.55;;;;;;;;;;6256111;22;19996;-67
2023/10/27 04:52:06;;;;;;;1.50;0.50;;;;;;;;;;6251866;22;20511;-66
2023/10/27 04:54:34;;;;;;;2.13;0.60;;;;;;;;;;6255653;22;20266;-66
2023/10/27 04:57:03;;;;;;;1.05;0.47;;;;;;;;;;6251745;22;20010;-66
2023/10/27 04:59:31;;;;;;;1.65;0.55;;;;;;;;;;6256604;22;20003;-67
2023/10/27 05:01:59;;;;;;;1.83;0.50;;;;;;;;;;6255651;22;19999;-67
2023/10/27 05:04:26;;;;;;;3.15;0.40;;;;;;;;;;6255984;22;20078;-66
2023/10/27 05:06:51;;;;;;;2.22;0.60;;;;;;;;;;6256070;22;20089;-66
2023/10/27 05:09:18;;;;;;;2.17;0.60;;;;;;;;;;6257170;22;19995;-66
2023/10/27 05:11:45;;;;;;;2.58;0.50;;;;;;;;;;6257026;22;20011;-66
2023/10/27 05:14:10;;;;;;;1.08;0.50;;;;;;;;;;6258094;22;20022;-66
2023/10/27 05:16:36;;;;;;;1.50;0.40;;;;;;;;;;6255623;22;20417;-66
2023/10/27 05:19:02;;;;;;;2.25;0.60;;;;;;;;;;6256286;22;20012;-66
2023/10/27 05:21:27;;;;;;;1.35;0.57;;;;;;;;;;6252795;22;20007;-66
2023/10/27 05:23:56;;;;;;;1.73;0.50;;;;;;;;;;6258838;22;20325;-66
2023/10/27 05:26:21;;;;;;;1.33;0.50;;;;;;;;;;6255861;22;21012;-66
2023/10/27 05:28:47;;;;;;;1.17;0.50;;;;;;;;;;6257403;22;20019;-66
2023/10/27 05:31:12;;;;;;;1.20;0.50;;;;;;;;;;6251261;22;19999;-66
2023/10/27 05:33:37;;;;;;;1.50;0.50;;;;;;;;;;6258642;22;20754;-65
2023/10/27 05:36:03;;;;;;;0.93;0.40;;;;;;;;;;6256653;22;20214;-66
2023/10/27 05:38:28;;;;;;;1.13;0.50;;;;;;;;;;6257154;22;20210;-65
2023/10/27 05:40:56;;;;;;;1.17;0.40;;;;;;;;;;6251426;22;20011;-65
2023/10/27 05:43:22;;;;;;;2.13;0.50;;;;;;;;;;6254475;22;20086;-65
2023/10/27 05:45:47;;;;;;;1.88;0.45;;;;;;;;;;6251238;22;20149;-65
2023/10/27 05:48:12;;;;;;;1.60;0.55;;;;;;;;;;6250160;22;20739;-65
2023/10/27 05:50:38;;;;;;;1.23;0.40;;;;;;;;;;6252424;22;20525;-66
2023/10/27 05:53:05;;;;;;;1.52;0.52;;;;;;;;;;6255267;22;19999;-65
2023/10/27 05:55:33;;;;;;;4.22;0.82;;;;;;;;;;6255954;22;20000;-68
2023/10/27 05:57:58;;;;;;;2.28;0.50;;;;;;;;;;6254433;22;20141;-65
2023/10/27 06:00:24;;;;;;;2.30;0.50;;;;;;;;;;6257174;22;20074;-65
2023/10/27 06:02:52;;;;;;;1.83;0.50;;;;;;;;;;6250708;22;20321;-65
2023/10/27 06:05:18;;;;;;;0.95;0.40;;;;;;;;;;6258520;22;20099;-68
2023/10/27 06:07:43;;;;;;;1.52;0.40;;;;;;;;;;6252033;22;20098;-67
2023/10/27 06:10:08;;;;;;;1.70;0.50;;;;;;;;;;6258271;22;20318;-66
2023/10/27 06:12:33;;;;;;;1.60;0.43;;;;;;;;;;6256102;22;20280;-65
2023/10/27 06:14:59;;;;;;;1.02;0.30;;;;;;;;;;6255448;22;20180;-66
2023/10/27 06:17:24;;;;;;;1.55;0.40;;;;;;;;;;6254957;22;20469;-66
2023/10/27 06:19:50;;;;;;;1.90;0.40;;;;;;;;;;6254139;22;20501;-66
2023/10/27 06:22:16;;;;;;;1.02;0.30;;;;;;;;;;6257465;22;20000;-66
2023/10/27 06:24:44;;;;;;;0.77;0.30;;;;;;;;;;6253754;22;20770;-66
2023/10/27 06:27:09;;;;;;;0.80;0.30;;;;;;;;;;6258690;22;20008;-66
2023/10/27 06:29:34;;;;;;;1.20;0.40;;;;;;;;;;6255291;22;20053;-66
2023/10/27 06:31:59;;;;;;;2.10;0.40;;;;;;;;;;6255021;22;20000;-66
2023/10/27 06:34:25;;;;;;;2.03;0.60;;;;;;;;;;6252110;22;20119;-65
2023/10/27 06:36:50;;;;;;;2.85;0.60;;;;;;;;;;6253397;22;20780;-65
2023/10/27 06:39:15;;;;;;;1.13;0.40;;;;;;;;;;6256937;22;20074;-66
2023/10/27 06:41:40;;;;;;;1.77;0.50;;;;;;;;;;6255479;22;20218;-67
2023/10/27 06:44:06;;;;;;;1.08;0.38;;;;;;;;;;6255668;22;20046;-66
2023/10/27 06:46:31;;;;;;;1.10;0.40;;;;;;;;;;6253884;22;20464;-66
2023/10/27 06:48:56;;;;;;;2.10;0.60;;;;;;;;;;6253199;22;20006;-66
2023/10/27 06:51:21;;;;;;;0.93;0.40;;;;;;;;;;6256968;22;20318;-66
2023/10/27 06:53:47;;;;;;;1.27;0.40;;;;;;;;;;6255768;22;20706;-67
2023/10/27 06:56:14;;;;;;;1.43;0.50;;;;;;;;;;6258469;22;20218;-66
2023/10/27 06:58:39;;;;;;;2.38;0.55;;;;;;;;;;6256386;22;20218;-65
2023/10/27 07:01:08;;;;;;;3.70;0.67;;;;;;;;;;6259076;22;20003;-66
2023/10/27 07:03:35;;;;;;;1.77;0.60;;;;;;;;;;6259223;22;20267;-65
2023/10/27 07:06:00;;;;;;;1.33;0.40;;;;;;;;;;6258628;22;19996;-66
2023/10/27 07:08:30;;;;;;;0.82;0.30;;;;;;;;;;6255871;22;20309;-66
2023/10/27 07:10:58;;;;;;;1.42;0.40;;;;;;;;;;6254704;22;20721;-66
2023/10/27 07:13:30;;;;;;;1.70;0.50;;;;;;;;;;6258425;22;20846;-65
2023/10/27 07:15:55;;;;;;;1.35;0.40;;;;;;;;;;6256784;22;20006;-66
2023/10/27 07:18:20;;;;;;;2.03;0.40;;;;;;;;;;6258172;22;20075;-65
2023/10/27 07:20:46;;;;;;;1.70;0.60;;;;;;;;;;6255955;22;20310;-66
2023/10/27 07:23:12;;;;;;;3.28;0.70;;;;;;;;;;6256663;22;20061;-66
2023/10/27 07:25:37;;;;;;;1.90;0.60;;;;;;;;;;6254880;22;20000;-66
2023/10/27 07:28:02;;;;;;;1.87;0.50;;;;;;;;;;6254638;22;20715;-66
2023/10/27 07:30:28;;;;;;;2.05;0.70;;;;;;;;;;6257862;22;20214;-64
2023/10/27 07:32:53;;;;;;;1.83;0.50;;;;;;;;;;6255622;22;20003;-66
2023/10/27 07:35:21;;;;;;;1.20;0.40;;;;;;;;;;6255272;22;20004;-66
2023/10/27 07:37:46;;;;;;;1.65;0.60;;;;;;;;;;6256045;22;20004;-66
2023/10/27 07:40:13;;;;;;;3.10;1.30;;;;;;;;;;6257811;22;20393;-66
2023/10/27 07:42:39;;;;;;;3.08;1.15;;;;;;;;;;6258632;22;20242;-65
2023/10/27 07:45:04;;;;;;;3.72;1.10;;;;;;;;;;6268106;22;20365;-66
2023/10/27 07:47:29;;;;;;;1.30;0.43;;;;;;;;;;6289091;22;20011;-66
2023/10/27 07:49:55;;;;;;;4.00;0.67;;;;;;;;;;6287815;22;20052;-66
2023/10/27 07:52:20;;;;;;;3.33;0.40;;;;;;;;;;6289708;22;20213;-66
2023/10/27 07:54:48;;;;;;;3.10;1.10;;;;;;;;;;6289174;22;20626;-66
2023/10/27 07:57:14;;;;;;;3.47;1.15;;;;;;;;;;6289919;22;20521;-65
2023/10/27 07:59:41;;;;;;;4.65;1.40;;;;;;;;;;6288393;22;19999;-66
2023/10/27 08:02:07;;;;;;;1.90;0.47;;;;;;;;;;6261293;22;20034;-66
2023/10/27 08:04:37;;;;;;;3.10;0.50;;;;;;;;;;6260534;22;20051;-66
2023/10/27 08:07:02;;;;;;;3.05;0.80;;;;;;;;;;6290265;22;20558;-66
2023/10/27 08:09:31;;;;;;;1.45;0.40;;;;;;;;;;6261092;22;20101;-66
2023/10/27 08:11:56;;;;;;;1.60;0.50;;;;;;;;;;6260548;22;20003;-65
2023/10/27 08:14:24;;;;;;;4.57;2.35;;;;;;;;;;6260274;22;20010;-66
2023/10/27 08:16:51;;;;;;;4.65;1.45;;;;;;;;;;6261666;22;20037;-67
2023/10/27 08:19:17;;;;;;;3.15;1.00;;;;;;;;;;6288852;22;20086;-66
2023/10/27 08:21:43;;;;;;;3.25;1.02;;;;;;;;;;6260053;22;19999;-66
2023/10/27 08:24:09;;;;;;;3.45;1.02;;;;;;;;;;6288878;22;20396;-65
2023/10/27 08:26:34;;;;;;;3.35;0.70;;;;;;;;;;6287404;22;20003;-65
2023/10/27 08:28:59;;;;;;;2.35;0.75;;;;;;;;;;6261515;22;19999;-66
2023/10/27 08:31:25;;;;;;;1.58;0.45;;;;;;;;;;6287691;22;20129;-67
2023/10/27 08:33:50;;;;;;;1.97;0.40;;;;;;;;;;6286664;22;20387;-66
2023/10/27 08:36:15;;;;;;;0.93;0.38;;;;;;;;;;6290167;22;20214;-66
2023/10/27 08:38:41;;;;;;;1.77;0.50;;;;;;;;;;6284176;22;20085;-66
2023/10/27 08:41:07;;;;;;;3.25;0.38;;;;;;;;;;6288298;22;19995;-66
2023/10/27 08:43:35;;;;;;;3.33;0.65;;;;;;;;;;6258279;22;20007;-66
2023/10/27 08:46:09;;;;;;;3.15;0.70;;;;;;;;;;6259568;22;20020;-66
2023/10/27 08:48:35;;;;;;;1.73;0.40;;;;;;;;;;6260421;22;20620;-65
2023/10/27 08:51:04;;;;;;;2.42;0.60;;;;;;;;;;6287352;22;20005;-65
2023/10/27 08:53:30;;;;;;;3.50;0.77;;;;;;;;;;6289203;22;20006;-66
2023/10/27 08:55:55;;;;;;;5.93;0.95;;;;;;;;;;6281677;22;19999;-64
2023/10/27 08:58:23;;;;;;;3.25;0.90;;;;;;;;;;6288112;22;19995;-63
2023/10/27 09:00:50;;;;;;;2.80;0.80;;;;;;;;;;6258570;22;19999;-65
2023/10/27 09:03:16;;;;;;;1.83;0.60;;;;;;;;;;6258973;22;20178;-65
2023/10/27 09:05:42;;;;;;;2.53;0.70;;;;;;;;;;6289007;22;20010;-65
2023/10/27 09:08:08;;;;;;;3.05;1.00;;;;;;;;;;6260858;22;20030;-64
2023/10/27 09:10:33;;;;;;;2.28;0.70;;;;;;;;;;6262840;22;20487;-65
2023/10/27 09:13:00;;;;;;;2.57;1.00;;;;;;;;;;6259056;22;20003;-65
2023/10/27 09:15:25;;;;;;;1.88;0.60;;;;;;;;;;6289906;22;20244;-65
2023/10/27 09:17:54;;;;;;;2.88;0.60;;;;;;;;;;6259990;22;20019;-64
2023/10/27 09:20:29;;;;;;;0.75;0.38;;;;;;;;;;6259858;22;20437;-65
2023/10/27 09:22:54;;;;;;;2.10;0.70;;;;;;;;;;6261366;22;20482;-66
2023/10/27 09:25:22;;;;;;;2.97;0.90;;;;;;;;;;6286947;22;19995;-65
2023/10/27 09:27:49;;;;;;;1.85;0.70;;;;;;;;;;6290174;22;20078;-65
2023/10/27 09:30:28;;;;;;;1.20;0.40;;;;;;;;;;6257789;22;20003;-65
2023/10/27 09:32:55;;;;;;;2.75;0.90;;;;;;;;;;6262769;22;20505;-65
2023/10/27 09:35:22;;;;;;;2.10;0.55;;;;;;;;;;6287407;22;20000;-65
2023/10/27 09:37:48;;;;;;;2.00;0.70;;;;;;;;;;6288909;22;20102;-66
2023/10/27 09:40:15;;;;;;;1.25;0.52;;;;;;;;;;6290481;22;19995;-66
2023/10/27 09:42:41;;;;;;;3.75;1.08;;;;;;;;;;6260262;22;20363;-65
2023/10/27 09:45:07;;;;;;;2.67;0.70;;;;;;;;;;6257517;22;20026;-65
2023/10/27 09:47:43;;;;;;;1.80;0.60;;;;;;;;;;6254047;22;20008;-65
2023/10/27 09:50:12;;;;;;;2.15;0.45;;;;;;;;;;6256492;22;20106;-65
2023/10/27 09:52:40;;;;;;;2.55;0.60;;;;;;;;;;6253505;22;20010;-66
2023/10/27 09:55:05;;;;;;;1.90;0.60;;;;;;;;;;6251495;22;20053;-65
2023/10/27 09:57:31;;;;;;;2.15;0.60;;;;;;;;;;6256792;22;20011;-65
2023/10/27 09:59:58;;;;;;;1.65;0.50;;;;;;;;;;6249055;22;20004;-65
2023/10/27 10:02:23;;;;;;;4.60;0.65;;;;;;;;;;6254619;22;20042;-65
2023/10/27 10:04:51;;;;;;;1.35;0.43;;;;;;;;;;6253766;22;20696;-65
2023/10/27 10:07:32;;;;;;;1.10;0.43;;;;;;;;;;6255177;22;20003;-65
2023/10/27 10:09:58;;;;;;;1.20;0.40;;;;;;;;;;6258027;22;20760;-65
2023/10/27 10:12:26;;;;;;;4.05;0.60;;;;;;;;;;6254550;22;20023;-65
2023/10/27 10:14:52;;;;;;;2.10;0.30;;;;;;;;;;6256109;22;19999;-65
2023/10/27 10:17:36;;;;;;;3.50;0.40;;;;;;;;;;6255314;22;20008;-66
2023/10/27 10:20:01;;;;;;;2.42;0.50;;;;;;;;;;6257687;22;20066;-62
2023/10/27 10:22:42;;;;;;;2.00;0.40;;;;;;;;;;6258711;22;19995;-64
2023/10/27 10:25:19;;;;;;;2.35;0.60;;;;;;;;;;6255887;22;20297;-65
2023/10/27 10:28:03;;;;;;;3.13;0.93;;;;;;;;;;6260946;22;20007;-65
2023/10/27 10:30:29;;;;;;;4.03;0.70;;;;;;;;;;6253460;22;20028;-65
2023/10/27 10:33:14;;;;;;;2.22;0.50;;;;;;;;;;6250323;22;20004;-65
2023/10/27 10:35:42;;;;;;;3.45;1.02;;;;;;;;;;6253225;22;19996;-66
2023/10/27 10:38:29;;;;;;;2.25;0.68;;;;;;;;;;6250066;22;20671;-65
2023/10/27 10:40:55;;;;;;;2.22;0.60;;;;;;;;;;6248755;22;20007;-65
2023/10/27 10:43:23;;;;;;;2.42;0.40;;;;;;;;;;6249695;22;19999;-65
2023/10/27 10:45:56;;;;;;;2.65;0.60;;;;;;;;;;6248973;22;20050;-68
2023/10/27 10:48:25;;;;;;;1.55;0.50;;;;;;;;;;6251174;22;20047;-66
2023/10/27 10:50:50;;;;;;;2.58;0.77;;;;;;;;;;6250764;22;20629;-66
2023/10/27 10:53:17;;;;;;;1.77;0.43;;;;;;;;;;6252761;22;20509;-65
2023/10/27 10:55:46;;;;;;;2.40;0.40;;;;;;;;;;6250908;22;20008;-66
2023/10/27 10:58:21;;;;;;;1.77;0.43;;;;;;;;;;6257851;22;20004;-65
2023/10/27 11:00:48;;;;;;;2.20;0.50;;;;;;;;;;6258036;22;20867;-65
2023/10/27 11:03:15;;;;;;;1.73;0.38;;;;;;;;;;6256484;22;20031;-66
2023/10/27 11:05:43;;;;;;;1.23;0.40;;;;;;;;;;6258682;22;20003;-65
2023/10/27 11:08:08;;;;;;;0.52;0.30;;;;;;;;;;6257599;22;20004;-66
2023/10/27 11:10:34;;;;;;;2.37;0.50;;;;;;;;;;6258785;22;20103;-65
2023/10/27 11:13:06;;;;;;;1.38;0.40;;;;;;;;;;6254717;22;20633;-65
2023/10/27 11:15:44;;;;;;;1.75;0.30;;;;;;;;;;6256108;22;20008;-66
2023/10/27 11:18:14;;;;;;;1.98;0.50;;;;;;;;;;6257497;22;19999;-65
2023/10/27 11:20:39;;;;;;;1.67;0.50;;;;;;;;;;6254690;22;20004;-66
2023/10/27 11:23:09;;;;;;;1.08;0.40;;;;;;;;;;6253579;22;20000;-65
2023/10/27 11:25:37;;;;;;;1.90;0.50;;;;;;;;;;6257280;22;20030;-66
2023/10/27 11:28:23;;;;;;;2.53;0.52;;;;;;;;;;6252215;22;20122;-65
2023/10/27 11:31:17;;;;;;;1.02;0.30;;;;;;;;;;6256999;22;20557;-65
2023/10/27 11:34:03;;;;;;;1.35;0.50;;;;;;;;;;6209537;22;20425;-65
2023/10/27 11:36:40;;;;;;;0.88;0.30;;;;;;;;;;6251469;22;20720;-65
2023/10/27 11:39:14;;;;;;;1.92;0.50;;;;;;;;;;6255316;22;20045;-65
2023/10/27 11:41:45;;;;;;;3.67;0.60;;;;;;;;;;6254296;22;20007;-66
2023/10/27 11:44:10;;;;;;;2.28;0.30;;;;;;;;;;6256553;22;20064;-66
2023/10/27 11:46:38;;;;;;;1.92;0.40;;;;;;;;;;6257056;22;20288;-65
2023/10/27 11:49:03;;;;;;;1.13;0.30;;;;;;;;;;6259764;22;20003;-65
2023/10/27 11:51:30;;;;;;;1.08;0.32;;;;;;;;;;6256832;22;20072;-65
2023/10/27 11:53:55;;;;;;;2.33;0.40;;;;;;;;;;6254602;22;20547;-65
2023/10/27 11:56:20;;;;;;;1.30;0.30;;;;;;;;;;6257571;22;20004;-66
2023/10/27 11:58:48;;;;;;;1.00;0.30;;;;;;;;;;6255287;22;20003;-65
2023/10/27 12:01:13;;;;;;;2.25;0.50;;;;;;;;;;6257692;22;20230;-66
2023/10/27 12:03:40;;;;;;;2.27;0.47;;;;;;;;;;6256633;22;19995;-65
2023/10/27 12:06:06;;;;;;;0.88;0.30;;;;;;;;;;6257348;22;20225;-66
2023/10/27 12:08:31;;;;;;;1.45;0.40;;;;;;;;;;6253647;22;20102;-66
2023/10/27 12:10:56;;;;;;;1.30;0.25;;;;;;;;;;6259258;22;20095;-66
2023/10/27 12:13:23;;;;;;;2.35;0.50;;;;;;;;;;6254645;22;20054;-65
2023/10/27 12:15:50;;;;;;;1.65;0.47;;;;;;;;;;6258065;22;20014;-66
2023/10/27 12:18:19;;;;;;;1.95;0.50;;;;;;;;;;6257541;22;20011;-66
2023/10/27 12:20:45;;;;;;;3.53;0.47;;;;;;;;;;6256523;22;19996;-66
2023/10/27 12:23:10;;;;;;;1.35;0.40;;;;;;;;;;6256987;22;20534;-65
2023/10/27 12:25:35;;;;;;;1.65;0.40;;;;;;;;;;6254413;22;20000;-65
2023/10/27 12:28:01;;;;;;;0.63;0.20;;;;;;;;;;6255454;22;20065;-66
2023/10/27 12:30:30;;;;;;;0.93;0.40;;;;;;;;;;6253181;22;20071;-66
2023/10/27 12:32:56;;;;;;;1.02;0.30;;;;;;;;;;6257770;22;20027;-66
2023/10/27 12:35:21;;;;;;;2.50;0.50;;;;;;;;;;6256569;22;20058;-65
2023/10/27 12:37:49;;;;;;;1.05;0.40;;;;;;;;;;6255385;22;20209;-65
2023/10/27 12:40:15;;;;;;;1.13;0.38;;;;;;;;;;6259833;22;20019;-65
2023/10/27 12:42:40;;;;;;;2.63;0.40;;;;;;;;;;6253370;22;20035;-65
2023/10/27 12:45:06;;;;;;;1.25;0.20;;;;;;;;;;6268398;22;20479;-65
2023/10/27 12:47:31;;;;;;;1.20;0.20;;;;;;;;;;6259934;22;20007;-66
2023/10/27 12:49:58;;;;;;;1.02;0.30;;;;;;;;;;6261134;22;20029;-66
2023/10/27 12:52:25;;;;;;;0.80;0.20;;;;;;;;;;6287332;22;19995;-65
2023/10/27 12:54:53;;;;;;;0.77;0.28;;;;;;;;;;6262208;22;20428;-66
2023/10/27 12:57:18;;;;;;;1.67;0.30;;;;;;;;;;6286321;22;20037;-65
2023/10/27 12:59:46;;;;;;;2.33;0.45;;;;;;;;;;6288169;22;20042;-66
2023/10/27 13:02:12;;;;;;;1.13;0.30;;;;;;;;;;6288803;22;20318;-66
2023/10/27 13:04:37;;;;;;;1.35;0.30;;;;;;;;;;6259935;22;20589;-65
2023/10/27 13:07:03;;;;;;;1.38;0.30;;;;;;;;;;6291121;22;20007;-66
2023/10/27 13:09:28;;;;;;;1.00;0.30;;;;;;;;;;6288997;22;20408;-66
2023/10/27 13:11:56;;;;;;;1.02;0.32;;;;;;;;;;6288622;22;20099;-65
2023/10/27 13:14:21;;;;;;;2.15;0.40;;;;;;;;;;6257489;22;20010;-65
2023/10/27 13:16:49;;;;;;;1.95;0.25;;;;;;;;;;6287726;22;20070;-67
2023/10/27 13:19:15;;;;;;;2.38;0.32;;;;;;;;;;6286309;22;20022;-67
2023/10/27 13:21:40;;;;;;;1.65;0.20;;;;;;;;;;6259238;22;20030;-67
2023/10/27 13:24:09;;;;;;;2.97;0.40;;;;;;;;;;6258959;22;19999;-66
2023/10/27 13:26:37;;;;;;;1.23;0.38;;;;;;;;;;6259278;22;20249;-68
2023/10/27 13:29:04;;;;;;;2.00;0.30;;;;;;;;;;6288366;22;20000;-66
2023/10/27 13:31:30;;;;;;;1.73;0.43;;;;;;;;;;6258556;22;19999;-65
2023/10/27 13:33:58;;;;;;;1.23;0.30;;;;;;;;;;6287524;22;20317;-65
2023/10/27 13:36:23;;;;;;;0.60;0.28;;;;;;;;;;6258866;22;20042;-67
2023/10/27 13:38:49;;;;;;;0.87;0.30;;;;;;;;;;6258874;22;20054;-68
2023/10/27 13:41:18;;;;;;;0.88;0.32;;;;;;;;;;6288550;22;20214;-68
2023/10/27 13:43:44;;;;;;;2.55;0.40;;;;;;;;;;6259076;22;20472;-67
2023/10/27 13:46:09;;;;;;;3.10;0.30;;;;;;;;;;6256458;22;20015;-67
2023/10/27 13:48:46;;;;;;;1.05;0.30;;;;;;;;;;6255634;22;20011;-69
2023/10/27 13:51:15;;;;;;;2.13;0.38;;;;;;;;;;6284814;22;20759;-68
2023/10/27 13:53:44;;;;;;;1.40;0.30;;;;;;;;;;6286207;22;20000;-68
2023/10/27 13:56:12;;;;;;;2.65;0.30;;;;;;;;;;6258539;22;20056;-69
2023/10/27 13:58:39;;;;;;;1.98;0.30;;;;;;;;;;6258808;22;20011;-68
2023/10/27 14:01:07;;;;;;;1.75;0.30;;;;;;;;;;6284904;22;20452;-69
2023/10/27 14:03:33;;;;;;;0.95;0.20;;;;;;;;;;6289790;22;20003;-69
2023/10/27 14:06:00;;;;;;;0.70;0.20;;;;;;;;;;6257847;22;20501;-68
2023/10/27 14:08:25;;;;;;;0.68;0.20;;;;;;;;;;6261220;22;20079;-69
2023/10/27 14:10:53;;;;;;;1.42;0.30;;;;;;;;;;6259726;22;20003;-69
2023/10/27 14:13:21;;;;;;;0.82;0.30;;;;;;;;;;6290658;22;19995;-68
2023/10/27 14:15:46;;;;;;;1.52;0.50;;;;;;;;;;6258689;22;20379;-69
2023/10/27 14:18:12;;;;;;;1.33;0.40;;;;;;;;;;6262090;22;20007;-68
2023/10/27 14:20:37;;;;;;;0.82;0.20;;;;;;;;;;6287443;22;20851;-68
2023/10/27 14:23:04;;;;;;;0.80;0.30;;;;;;;;;;6260000;22;20006;-69
2023/10/27 14:25:33;;;;;;;3.35;0.47;;;;;;;;;;6263327;22;20253;-68
2023/10/27 14:27:58;;;;;;;1.30;0.30;;;;;;;;;;6260790;22;20022;-68
2023/10/27 14:30:24;;;;;;;3.43;0.40;;;;;;;;;;6289394;22;20000;-68
2023/10/27 14:32:53;;;;;;;1.95;0.40;;;;;;;;;;6260525;22;20276;-68
2023/10/27 14:35:18;;;;;;;0.85;0.40;;;;;;;;;;6262181;22;20077;-68
2023/10/27 14:37:43;;;;;;;3.40;0.70;;;;;;;;;;6285379;22;20070;-68
2023/10/27 14:40:09;;;;;;;3.27;0.50;;;;;;;;;;6289574;22;20217;-68
2023/10/27 14:42:36;;;;;;;1.05;0.40;;;;;;;;;;6259747;22;20214;-68